Observation data for Floydada on 09/12/2017      Previous  Date       Current Mesonet Observations  Soil Data  Daily Summary Page  Observations in Plain Language
KFLS 120500Z 14006KT 17/10 A3014 RMK A01 T01720099  RH  063%=      5-min Rain = 0
KFLS 120505Z 13006KT 18/10 A3013 RMK A01 T01750098  RH  061%=      5-min Rain = 0
KFLS 120510Z 13006KT 18/10 A3013 RMK A01 T01800097  RH  059%=      5-min Rain = 0
KFLS 120515Z 13006KT 18/10 A3013 RMK A01 T01800096  RH  059%=      5-min Rain = 0
KFLS 120520Z 14006KT 18/10 A3013 RMK A01 T01760096  RH  060%=      5-min Rain = 0
KFLS 120525Z 14006KT 17/10 A3013 RMK A01 T01710097  RH  063%=      5-min Rain = 0
KFLS 120530Z 15005KT 17/10 A3013 RMK A01 T01680097  RH  064%=      5-min Rain = 0
KFLS 120535Z 15004KT 17/10 A3013 RMK A01 T01670097  RH  064%=      5-min Rain = 0
KFLS 120540Z 14004KT 17/10 A3013 RMK A01 T01660098  RH  065%=      5-min Rain = 0
KFLS 120545Z 15004KT 17/10 A3013 RMK A01 T01660097  RH  065%=      5-min Rain = 0
KFLS 120550Z 15004KT 17/10 A3013 RMK A01 T01660097  RH  065%=      5-min Rain = 0
KFLS 120555Z 14005KT 17/10 A3013 RMK A01 T01650096  RH  065%=      5-min Rain = 0
KFLS 120600Z 14006KT 17/10 A3012 RMK A01 T01660096  RH  064%=      5-min Rain = 0
KFLS 120605Z 14006KT 17/10 A3012 RMK A01 T01660096  RH  064%=      5-min Rain = 0
KFLS 120610Z 14006KT 17/10 A3012 RMK A01 T01650095  RH  064%=      5-min Rain = 0
KFLS 120615Z 15006KT 16/10 A3012 RMK A01 T01610096  RH  066%=      5-min Rain = 0
KFLS 120620Z 15006KT 16/10 A3012 RMK A01 T01610096  RH  066%=      5-min Rain = 0
KFLS 120625Z 15006KT 16/10 A3012 RMK A01 T01610096  RH  066%=      5-min Rain = 0
KFLS 120630Z 15006KT 16/10 A3012 RMK A01 T01620095  RH  066%=      5-min Rain = 0
KFLS 120635Z 16005KT 16/10 A3012 RMK A01 T01630095  RH  065%=      5-min Rain = 0
KFLS 120640Z 16005KT 16/09 A3012 RMK A01 T01620094  RH  065%=      5-min Rain = 0
KFLS 120645Z 16006KT 16/09 A3012 RMK A01 T01620094  RH  065%=      5-min Rain = 0
KFLS 120650Z 16006KT 16/09 A3011 RMK A01 T01640094  RH  064%=      5-min Rain = 0
KFLS 120655Z 16006KT 17/09 A3011 RMK A01 T01650094  RH  064%=      5-min Rain = 0
KFLS 120700Z 16006KT 16/09 A3011 RMK A01 T01640094  RH  064%=      5-min Rain = 0
KFLS 120705Z 15006KT 16/09 A3011 RMK A01 T01630094  RH  064%=      5-min Rain = 0
KFLS 120710Z 16005KT 16/09 A3011 RMK A01 T01610093  RH  065%=      5-min Rain = 0
KFLS 120715Z 16005KT 16/09 A3011 RMK A01 T01600093  RH  066%=      5-min Rain = 0
KFLS 120720Z 17005KT 16/09 A3011 RMK A01 T01590092  RH  065%=      5-min Rain = 0
KFLS 120725Z 17005KT 16/09 A3011 RMK A01 T01580092  RH  066%=      5-min Rain = 0
KFLS 120730Z 17004KT 16/09 A3011 RMK A01 T01570092  RH  066%=      5-min Rain = 0
KFLS 120735Z 18004KT 16/09 A3011 RMK A01 T01550092  RH  067%=      5-min Rain = 0
KFLS 120740Z 19004KT 16/09 A3011 RMK A01 T01560093  RH  067%=      5-min Rain = 0
KFLS 120745Z 19005KT 16/09 A301 RMK A01 T01600093  RH  065%=      5-min Rain = 0
KFLS 120750Z 19004KT 16/09 A301 RMK A01 T01630093  RH  064%=      5-min Rain = 0
KFLS 120755Z 19004KT 16/09 A301 RMK A01 T01640093  RH  064%=      5-min Rain = 0
KFLS 120800Z 19003KT 16/09 A301 RMK A01 T01630092  RH  064%=      5-min Rain = 0
KFLS 120805Z 19003KT 16/09 A301 RMK A01 T01600092  RH  065%=      5-min Rain = 0
KFLS 120810Z 18003KT 16/09 A301 RMK A01 T01570092  RH  066%=      5-min Rain = 0
KFLS 120815Z 20004KT 16/09 A301 RMK A01 T01570092  RH  067%=      5-min Rain = 0
KFLS 120820Z 21003KT 15/09 A301 RMK A01 T01500092  RH  069%=      5-min Rain = 0
KFLS 120825Z 22003KT 14/09 A301 RMK A01 T01440093  RH  072%=      5-min Rain = 0
KFLS 120830Z 23003KT 14/09 A301 RMK A01 T01410093  RH  074%=      5-min Rain = 0
KFLS 120835Z 24004KT 14/09 A301 RMK A01 T01390094  RH  075%=      5-min Rain = 0
KFLS 120840Z 25003KT 14/09 A301 RMK A01 T01350092  RH  077%=      5-min Rain = 0
KFLS 120845Z 24003KT 13/10 A301 RMK A01 T01340095  RH  079%=      5-min Rain = 0
KFLS 120850Z 24003KT 14/10 A3009 RMK A01 T01350096  RH  078%=      5-min Rain = 0
KFLS 120855Z 24004KT 13/09 A3009 RMK A01 T01330094  RH  079%=      5-min Rain = 0
KFLS 120900Z 24003KT 13/09 A3009 RMK A01 T01280093  RH  080%=      5-min Rain = 0
KFLS 120905Z 24003KT 13/10 A3009 RMK A01 T01270095  RH  082%=      5-min Rain = 0
KFLS 120910Z 24003KT 13/10 A3009 RMK A01 T01270096  RH  083%=      5-min Rain = 0
KFLS 120915Z 24003KT 13/10 A3009 RMK A01 T01260096  RH  083%=      5-min Rain = 0
KFLS 120920Z 24002KT 13/10 A3008 RMK A01 T01250096  RH  084%=      5-min Rain = 0
KFLS 120925Z 24002KT 13/10 A3009 RMK A01 T01270098  RH  084%=      5-min Rain = 0
KFLS 120930Z 25002KT 13/10 A3008 RMK A01 T01300102  RH  084%=      5-min Rain = 0
KFLS 120935Z 25002KT 13/10 A3008 RMK A01 T01320101  RH  083%=      5-min Rain = 0
KFLS 120940Z 25002KT 13/10 A3008 RMK A01 T01320100  RH  082%=      5-min Rain = 0
KFLS 120945Z 25002KT 13/10 A3008 RMK A01 T01320097  RH  081%=      5-min Rain = 0
KFLS 120950Z 27003KT 13/09 A3008 RMK A01 T01290094  RH  081%=      5-min Rain = 0
KFLS 120955Z 27003KT 13/09 A3008 RMK A01 T01250092  RH  081%=      5-min Rain = 0
KFLS 121000Z 27003KT 12/09 A3008 RMK A01 T01220091  RH  083%=      5-min Rain = 0
KFLS 121005Z 27003KT 12/09 A3008 RMK A01 T01200091  RH  084%=      5-min Rain = 0
KFLS 121010Z 27003KT 12/09 A3008 RMK A01 T01190091  RH  084%=      5-min Rain = 0
KFLS 121015Z 28002KT 12/09 A3008 RMK A01 T01190091  RH  084%=      5-min Rain = 0
KFLS 121020Z 28001KT 12/09 A3008 RMK A01 T01210092  RH  084%=      5-min Rain = 0
KFLS 121025Z 28002KT 12/09 A3008 RMK A01 T01220094  RH  084%=      5-min Rain = 0
KFLS 121030Z 28002KT 12/10 A3009 RMK A01 T01230095  RH  084%=      5-min Rain = 0
KFLS 121035Z 28002KT 12/09 A3009 RMK A01 T01220094  RH  084%=      5-min Rain = 0
KFLS 121040Z 28002KT 12/09 A3009 RMK A01 T01210094  RH  085%=      5-min Rain = 0
KFLS 121045Z 28001KT 12/09 A3009 RMK A01 T01210094  RH  085%=      5-min Rain = 0
KFLS 121050Z 28001KT 12/10 A3009 RMK A01 T01200095  RH  086%=      5-min Rain = 0
KFLS 121055Z 28001KT 12/10 A3009 RMK A01 T01200096  RH  086%=      5-min Rain = 0
KFLS 121100Z 28002KT 12/10 A3009 RMK A01 T01230098  RH  086%=      5-min Rain = 0
KFLS 121105Z 28002KT 13/10 A3009 RMK A01 T01250097  RH  085%=      5-min Rain = 0
KFLS 121110Z 28002KT 12/10 A3009 RMK A01 T01240095  RH  084%=      5-min Rain = 0
KFLS 121115Z 28003KT 12/10 A3009 RMK A01 T01230096  RH  085%=      5-min Rain = 0
KFLS 121120Z 28003KT 12/09 A3009 RMK A01 T01210093  RH  084%=      5-min Rain = 0
KFLS 121125Z 28003KT 12/09 A3009 RMK A01 T01180092  RH  085%=      5-min Rain = 0
KFLS 121130Z 28004KT 12/09 A3009 RMK A01 T01160090  RH  085%=      5-min Rain = 0
KFLS 121135Z 28004KT 11/09 A3009 RMK A01 T01130088  RH  086%=      5-min Rain = 0
KFLS 121140Z 28003KT 11/09 A3009 RMK A01 T01120089  RH  087%=      5-min Rain = 0
KFLS 121145Z 28003KT 11/09 A3009 RMK A01 T01130091  RH  088%=      5-min Rain = 0
KFLS 121150Z 28003KT 11/09 A3008 RMK A01 T01140091  RH  087%=      5-min Rain = 0
KFLS 121155Z 27003KT 11/09 A3008 RMK A01 T01140091  RH  087%=      5-min Rain = 0
KFLS 121200Z 27002KT 12/09 A3009 RMK A01 T01170094  RH  087%=      5-min Rain = 0
KFLS 121205Z 27002KT 12/10 A3009 RMK A01 T01210096  RH  086%=      5-min Rain = 0
KFLS 121210Z 26003KT 13/10 A3008 RMK A01 T01260096  RH  083%=      5-min Rain = 0
KFLS 121215Z 26003KT 13/10 A3009 RMK A01 T01280095  RH  082%=      5-min Rain = 0
KFLS 121220Z 26003KT 13/10 A3009 RMK A01 T01290097  RH  082%=      5-min Rain = 0
KFLS 121225Z 26003KT 13/10 A3009 RMK A01 T01280098  RH  083%=      5-min Rain = 0
KFLS 121230Z 26003KT 13/10 A3009 RMK A01 T01260098  RH  084%=      5-min Rain = 0
KFLS 121235Z 26003KT 13/10 A3009 RMK A01 T01280100  RH  084%=      5-min Rain = 0
KFLS 121240Z 26003KT 13/10 A3009 RMK A01 T01300100  RH  084%=      5-min Rain = 0
KFLS 121245Z 26003KT 13/10 A3009 RMK A01 T01290098  RH  083%=      5-min Rain = 0
KFLS 121250Z 26003KT 13/10 A3009 RMK A01 T01250096  RH  084%=      5-min Rain = 0
KFLS 121255Z 27004KT 12/09 A3009 RMK A01 T01210094  RH  085%=      5-min Rain = 0
KFLS 121300Z 28005KT 12/10 A3009 RMK A01 T01190096  RH  087%=      5-min Rain = 0
KFLS 121305Z 28005KT 12/10 A3009 RMK A01 T01210099  RH  088%=      5-min Rain = 0
KFLS 121310Z 29004KT 12/10 A3009 RMK A01 T01240103  RH  089%=      5-min Rain = 0
KFLS 121315Z 30004KT 13/11 A3009 RMK A01 T01290107  RH  088%=      5-min Rain = 0
KFLS 121320Z 30004KT 14/11 A3009 RMK A01 T01350111  RH  087%=      5-min Rain = 0
KFLS 121325Z 30002KT 14/11 A3009 RMK A01 T01410113  RH  085%=      5-min Rain = 0
KFLS 121330Z 30002KT 15/12 A301 RMK A01 T01480116  RH  083%=      5-min Rain = 0
KFLS 121335Z 29002KT 15/12 A3009 RMK A01 T01530116  RH  080%=      5-min Rain = 0
KFLS 121340Z 28001KT 16/12 A3009 RMK A01 T01570117  RH  079%=      5-min Rain = 0
KFLS 121345Z 28001KT 16/12 A3009 RMK A01 T01620118  RH  076%=      5-min Rain = 0
KFLS 121350Z 26001KT 17/12 A3009 RMK A01 T01680120  RH  075%=      5-min Rain = 0
KFLS 121355Z 24001KT 17/12 A3009 RMK A01 T01730117  RH  071%=      5-min Rain = 0
KFLS 121400Z 23001KT 18/11 A3009 RMK A01 T01780113  RH  067%=      5-min Rain = 0
KFLS 121405Z 21002KT 18/12 A3009 RMK A01 T01840115  RH  065%=      5-min Rain = 0
KFLS 121410Z 20003KT 19/11 A3009 RMK A01 T01880111  RH  062%=      5-min Rain = 0
KFLS 121415Z 20003KT 19/11 A3009 RMK A01 T01930113  RH  061%=      5-min Rain = 0
KFLS 121420Z 19004KT 20/10 A3009 RMK A01 T01990104  RH  055%=      5-min Rain = 0
KFLS 121425Z 19004KT 21/10 A3009 RMK A01 T02050100  RH  052%=      5-min Rain = 0
KFLS 121430Z 19005KT 21/10 A3009 RMK A01 T02090095  RH  049%=      5-min Rain = 0
KFLS 121435Z 20004KT 21/10 A3009 RMK A01 T02130099  RH  049%=      5-min Rain = 0
KFLS 121440Z 21004KT 22/10 A3009 RMK A01 T02170097  RH  047%=      5-min Rain = 0
KFLS 121445Z 21005KT 22/10 A3009 RMK A01 T02180096  RH  046%=      5-min Rain = 0
KFLS 121450Z 21005KT 22/09 A3009 RMK A01 T02200094  RH  045%=      5-min Rain = 0
KFLS 121455Z 20005KT 22/09 A3009 RMK A01 T02240094  RH  044%=      5-min Rain = 0
KFLS 121500Z 20005KT 23/09 A3009 RMK A01 T02260091  RH  043%=      5-min Rain = 0
KFLS 121505Z 20005KT 23/09 A3009 RMK A01 T02290091  RH  042%=      5-min Rain = 0
KFLS 121510Z 21006KT 23/09 A3009 RMK A01 T02320088  RH  041%=      5-min Rain = 0
KFLS 121515Z 21005KT 24/09 A3009 RMK A01 T02350091  RH  041%=      5-min Rain = 0
KFLS 121520Z 22006KT 24/09 A3009 RMK A01 T02380091  RH  040%=      5-min Rain = 0
KFLS 121525Z 21006KT 24/09 A3008 RMK A01 T02400092  RH  040%=      5-min Rain = 0
KFLS 121530Z 19007KT 24/09 A3008 RMK A01 T02420093  RH  039%=      5-min Rain = 0
KFLS 121535Z 21006KT 24/09 A3008 RMK A01 T02420093  RH  039%=      5-min Rain = 0
KFLS 121540Z 21007KT 24/09 A3008 RMK A01 T02420094  RH  040%=      5-min Rain = 0
KFLS 121545Z 21006KT 24/10 A3008 RMK A01 T02430097  RH  040%=      5-min Rain = 0
KFLS 121550Z 20006KT 25/10 A3008 RMK A01 T02450097  RH  040%=      5-min Rain = 0
KFLS 121555Z 20006KT 25/09 A3008 RMK A01 T02510093  RH  037%=      5-min Rain = 0
KFLS 121600Z 19006KT 25/09 A3008 RMK A01 T02540092  RH  036%=      5-min Rain = 0
KFLS 121605Z 21006KT 26/09 A3008 RMK A01 T02570093  RH  036%=      5-min Rain = 0
KFLS 121610Z 18006G11KT 26/10 A3008 RMK A01 T02560095  RH  037%=      5-min Rain = 0
KFLS 121615Z 21006KT 26/09 A3008 RMK A01 T02590093  RH  036%=      5-min Rain = 0
KFLS 121620Z 21006KT 26/10 A3008 RMK A01 T02600095  RH  036%=      5-min Rain = 0
KFLS 121625Z 20006KT 26/10 A3007 RMK A01 T02630095  RH  035%=      5-min Rain = 0
KFLS 121630Z 21006KT 27/09 A3007 RMK A01 T02660092  RH  034%=      5-min Rain = 0
KFLS 121640Z 21005KT 27/10 A3007 RMK A01 T02710095  RH  034%=      5-min Rain = 0
KFLS 121645Z 22006KT 27/09 A3007 RMK A01 T02720092  RH  033%=      5-min Rain = 0
KFLS 121650Z 19004KT 28/09 A3006 RMK A01 T02750094  RH  033%=      5-min Rain = 0
KFLS 121655Z 18006KT 28/10 A3006 RMK A01 T02790097  RH  033%=      5-min Rain = 0
KFLS 121700Z 20006G11KT 28/10 A3006 RMK A01 T02830099  RH  032%=      5-min Rain = 0
KFLS 121705Z 20007KT 29/10 A3006 RMK A01 T02850096  RH  031%=      5-min Rain = 0
KFLS 121710Z 19004KT 28/10 A3006 RMK A01 T02840095  RH  031%=      5-min Rain = 0
KFLS 121715Z 20006KT 29/09 A3005 RMK A01 T02860094  RH  031%=      5-min Rain = 0
KFLS 121720Z 19005KT 29/10 A3005 RMK A01 T02870095  RH  031%=      5-min Rain = 0
KFLS 121725Z 21006KT 29/09 A3005 RMK A01 T02900093  RH  030%=      5-min Rain = 0
KFLS 121730Z 18005KT 29/09 A3005 RMK A01 T02890092  RH  030%=      5-min Rain = 0
KFLS 121735Z 23005KT 29/09 A3005 RMK A01 T02920090  RH  029%=      5-min Rain = 0
KFLS 121740Z 20004KT 30/09 A3004 RMK A01 T02960092  RH  028%=      5-min Rain = 0
KFLS 121745Z 18003G8KT 30/09 A3004 RMK A01 T02950090  RH  028%=      5-min Rain = 0
KFLS 121750Z 22006KT 30/09 A3004 RMK A01 T02990092  RH  028%=      5-min Rain = 0
KFLS 121755Z 17003KT 30/09 A3004 RMK A01 T02990086  RH  027%=      5-min Rain = 0
KFLS 121800Z 21004KT 30/09 A3004 RMK A01 T02980088  RH  027%=      5-min Rain = 0
KFLS 121805Z 20004KT 30/09 A3004 RMK A01 T02980089  RH  028%=      5-min Rain = 0
KFLS 121810Z 24004G9KT 30/09 A3003 RMK A01 T03010092  RH  028%=      5-min Rain = 0
KFLS 121815Z 15004KT 31/09 A3003 RMK A01 T03080091  RH  026%=      5-min Rain = 0
KFLS 121820Z 22004KT 31/09 A3003 RMK A01 T03060089  RH  026%=      5-min Rain = 0
KFLS 121825Z 25004G10KT 31/09 A3003 RMK A01 T03070087  RH  026%=      5-min Rain = 0
KFLS 121830Z 19005KT 31/09 A3003 RMK A01 T03090089  RH  026%=      5-min Rain = 0
KFLS 121835Z 22005G10KT 31/09 A3002 RMK A01 T03110088  RH  025%=      5-min Rain = 0
KFLS 121840Z 28006KT 32/09 A3002 RMK A01 T03150085  RH  024%=      5-min Rain = 0
KFLS 121845Z 30005KT 31/09 A3002 RMK A01 T03140085  RH  024%=      5-min Rain = 0
KFLS 121850Z 30003KT 31/08 A3002 RMK A01 T03130084  RH  024%=      5-min Rain = 0
KFLS 121855Z 04002KT 32/09 A3002 RMK A01 T03150085  RH  024%=      5-min Rain = 0
KFLS 121900Z 25003G9KT 32/09 A3002 RMK A01 T03160085  RH  024%=      5-min Rain = 0
KFLS 121905Z 25005KT 31/09 A3001 RMK A01 T03140085  RH  024%=      5-min Rain = 0
KFLS 121910Z 23005KT 32/09 A3001 RMK A01 T03160086  RH  024%=      5-min Rain = 0
KFLS 121915Z 27003KT 32/08 A3001 RMK A01 T03170083  RH  024%=      5-min Rain = 0
KFLS 121920Z 00003KT 32/09 A30 RMK A01 T03170086  RH  024%=      5-min Rain = 0
KFLS 121925Z 32005G11KT 32/08 A30 RMK A01 T03200083  RH  023%=      5-min Rain = 0
KFLS 121930Z 00004KT 32/08 A30 RMK A01 T03200079  RH  023%=      5-min Rain = 0
KFLS 121935Z 01004KT 32/08 A30 RMK A01 T03220078  RH  022%=      5-min Rain = 0
KFLS 121940Z 04004KT 32/08 A2999 RMK A01 T03170076  RH  023%=      5-min Rain = 0
KFLS 121945Z 08002KT 32/08 A2999 RMK A01 T03170078  RH  023%=      5-min Rain = 0
KFLS 121950Z 04004G9KT 32/08 A2999 RMK A01 T03230080  RH  022%=      5-min Rain = 0
KFLS 121955Z 06006KT 33/08 A2998 RMK A01 T03260079  RH  022%=      5-min Rain = 0
KFLS 122000Z 09003KT 33/08 A2998 RMK A01 T03280077  RH  021%=      5-min Rain = 0
KFLS 122005Z 33007KT 33/07 A2998 RMK A01 T03290069  RH  020%=      5-min Rain = 0
KFLS 122010Z 33004KT 33/06 A2998 RMK A01 T03300063  RH  019%=      5-min Rain = 0
KFLS 122015Z 26004G9KT 33/06 A2997 RMK A01 T03290062  RH  019%=      5-min Rain = 0
KFLS 122020Z 16003KT 33/06 A2997 RMK A01 T03260063  RH  020%=      5-min Rain = 0
KFLS 122025Z 35004G9KT 33/07 A2997 RMK A01 T03320068  RH  020%=      5-min Rain = 0
KFLS 122030Z 32006KT 34/07 A2996 RMK A01 T03370066  RH  019%=      5-min Rain = 0
KFLS 122035Z 32006KT 33/07 A2996 RMK A01 T03340065  RH  019%=      5-min Rain = 0
KFLS 122040Z 29003KT 34/06 A2996 RMK A01 T03350062  RH  019%=      5-min Rain = 0
KFLS 122045Z 00005G11KT 34/06 A2995 RMK A01 T03370064  RH  019%=      5-min Rain = 0
KFLS 122050Z 06002G7KT 33/06 A2995 RMK A01 T03340061  RH  019%=      5-min Rain = 0
KFLS 122055Z 32006KT 34/06 A2995 RMK A01 T03350062  RH  019%=      5-min Rain = 0
KFLS 122100Z 35003KT 33/06 A2995 RMK A01 T03330060  RH  019%=      5-min Rain = 0
KFLS 122105Z 31005KT 33/06 A2995 RMK A01 T03330059  RH  018%=      5-min Rain = 0
KFLS 122110Z 29004KT 33/05 A2994 RMK A01 T03340054  RH  018%=      5-min Rain = 0
KFLS 122115Z 16002KT 33/05 A2994 RMK A01 T03340053  RH  018%=      5-min Rain = 0
KFLS 122120Z 01006KT 34/06 A2994 RMK A01 T03360061  RH  018%=      5-min Rain = 0
KFLS 122125Z 36004KT 34/06 A2994 RMK A01 T03380059  RH  018%=      5-min Rain = 0
KFLS 122130Z 35004G9KT 34/06 A2993 RMK A01 T03400062  RH  018%=      5-min Rain = 0
KFLS 122135Z 35004KT 34/06 A2993 RMK A01 T03390060  RH  018%=      5-min Rain = 0
KFLS 122140Z 00003G9KT 34/06 A2993 RMK A01 T03380060  RH  018%=      5-min Rain = 0
KFLS 122145Z 34006KT 34/06 A2993 RMK A01 T03380060  RH  018%=      5-min Rain = 0
KFLS 122150Z 33006KT 34/06 A2993 RMK A01 T03370055  RH  018%=      5-min Rain = 0
KFLS 122155Z 31002KT 34/05 A2993 RMK A01 T03360054  RH  017%=      5-min Rain = 0
KFLS 122200Z 33001KT 34/06 A2993 RMK A01 T03410055  RH  017%=      5-min Rain = 0
KFLS 122205Z 03004KT 34/06 A2992 RMK A01 T03400058  RH  017%=      5-min Rain = 0
KFLS 122210Z 01006KT 34/06 A2992 RMK A01 T03370060  RH  018%=      5-min Rain = 0
KFLS 122215Z 07009KT 33/09 A2993 RMK A01 T03340085  RH  022%=      5-min Rain = 0
KFLS 122220Z 07010G16KT 33/09 A2992 RMK A01 T03290090  RH  023%=      5-min Rain = 0
KFLS 122225Z 06009G16KT 33/09 A2993 RMK A01 T03280088  RH  023%=      5-min Rain = 0
KFLS 122230Z 07011KT 33/09 A2993 RMK A01 T03270088  RH  023%=      5-min Rain = 0
KFLS 122235Z 08014KT 32/09 A2992 RMK A01 T03240093  RH  025%=      5-min Rain = 0
KFLS 122240Z 08014KT 32/09 A2992 RMK A01 T03200093  RH  025%=      5-min Rain = 0
KFLS 122245Z 07012KT 32/09 A2992 RMK A01 T03180093  RH  025%=      5-min Rain = 0
KFLS 122250Z 07012KT 32/10 A2992 RMK A01 T03190095  RH  025%=      5-min Rain = 0
KFLS 122255Z 07014KT 32/10 A2992 RMK A01 T03160095  RH  026%=      5-min Rain = 0
KFLS 122300Z 07013KT 31/10 A2993 RMK A01 T03130096  RH  027%=      5-min Rain = 0
KFLS 122305Z 07013KT 31/10 A2993 RMK A01 T03120096  RH  027%=      5-min Rain = 0
KFLS 122310Z 07012KT 31/10 A2992 RMK A01 T03090095  RH  027%=      5-min Rain = 0
KFLS 122315Z 07012KT 31/10 A2992 RMK A01 T03090097  RH  027%=      5-min Rain = 0
KFLS 122320Z 08012KT 31/10 A2992 RMK A01 T03080097  RH  027%=      5-min Rain = 0
KFLS 122325Z 07012KT 31/10 A2992 RMK A01 T03060098  RH  028%=      5-min Rain = 0
KFLS 122330Z 07012KT 30/10 A2992 RMK A01 T03030097  RH  028%=      5-min Rain = 0
KFLS 122335Z 08012KT 30/10 A2992 RMK A01 T03010098  RH  029%=      5-min Rain = 0
KFLS 122340Z 08013KT 30/10 A2992 RMK A01 T03000098  RH  029%=      5-min Rain = 0
KFLS 122345Z 08012KT 30/10 A2992 RMK A01 T02970097  RH  029%=      5-min Rain = 0
KFLS 122350Z 07012KT 30/10 A2992 RMK A01 T02950099  RH  030%=      5-min Rain = 0
KFLS 122355Z 07012G17KT 29/10 A2992 RMK A01 T02920098  RH  030%=      5-min Rain = 0
KFLS 130000Z 08013KT 29/10 A2992 RMK A01 T02890097  RH  031%=      5-min Rain = 0
KFLS 130005Z 07011KT 29/10 A2992 RMK A01 T02870099  RH  031%=      5-min Rain = 0
KFLS 130010Z 07012KT 28/10 A2992 RMK A01 T02840098  RH  032%=      5-min Rain = 0
KFLS 130015Z 07010KT 28/10 A2992 RMK A01 T02820099  RH  032%=      5-min Rain = 0
KFLS 130020Z 07010KT 28/10 A2992 RMK A01 T02790098  RH  033%=      5-min Rain = 0
KFLS 130025Z 07009KT 28/10 A2992 RMK A01 T02750099  RH  034%=      5-min Rain = 0
KFLS 130030Z 08010KT 27/10 A2992 RMK A01 T02720098  RH  034%=      5-min Rain = 0
KFLS 130035Z 07009KT 27/10 A2992 RMK A01 T02690098  RH  035%=      5-min Rain = 0
KFLS 130040Z 07009KT 27/10 A2992 RMK A01 T02660099  RH  036%=      5-min Rain = 0
KFLS 130045Z 07009KT 26/10 A2992 RMK A01 T02620099  RH  036%=      5-min Rain = 0
KFLS 130050Z 07009KT 26/10 A2992 RMK A01 T02590100  RH  037%=      5-min Rain = 0
KFLS 130055Z 07008KT 26/10 A2992 RMK A01 T02550101  RH  039%=      5-min Rain = 0
KFLS 130100Z 08008KT 25/10 A2992 RMK A01 T02500102  RH  040%=      5-min Rain = 0
KFLS 130105Z 07008KT 25/10 A2992 RMK A01 T02470102  RH  041%=      5-min Rain = 0
KFLS 130110Z 07007KT 24/10 A2993 RMK A01 T02440103  RH  041%=      5-min Rain = 0
KFLS 130115Z 08007KT 24/10 A2993 RMK A01 T02400103  RH  043%=      5-min Rain = 0
KFLS 130120Z 07007KT 24/10 A2993 RMK A01 T02360104  RH  044%=      5-min Rain = 0
KFLS 130125Z 08007KT 23/11 A2993 RMK A01 T02310105  RH  046%=      5-min Rain = 0
KFLS 130130Z 08006KT 23/11 A2993 RMK A01 T02270105  RH  047%=      5-min Rain = 0
KFLS 130135Z 08006KT 22/11 A2993 RMK A01 T02230105  RH  048%=      5-min Rain = 0
KFLS 130140Z 07006KT 22/11 A2993 RMK A01 T02200106  RH  049%=      5-min Rain = 0
KFLS 130145Z 08006KT 22/11 A2994 RMK A01 T02170106  RH  050%=      5-min Rain = 0
KFLS 130150Z 09006KT 21/11 A2994 RMK A01 T02120107  RH  052%=      5-min Rain = 0
KFLS 130155Z 08006KT 21/11 A2994 RMK A01 T02090108  RH  053%=      5-min Rain = 0
KFLS 130200Z 08007KT 21/11 A2994 RMK A01 T02080108  RH  054%=      5-min Rain = 0
KFLS 130205Z 08007KT 21/11 A2994 RMK A01 T02080108  RH  054%=      5-min Rain = 0
KFLS 130210Z 09007KT 21/11 A2994 RMK A01 T02080108  RH  054%=      5-min Rain = 0
KFLS 130215Z 08007KT 21/11 A2995 RMK A01 T02070108  RH  054%=      5-min Rain = 0
KFLS 130220Z 08006KT 21/11 A2995 RMK A01 T02070106  RH  054%=      5-min Rain = 0
KFLS 130225Z 09007KT 21/11 A2995 RMK A01 T02060105  RH  053%=      5-min Rain = 0
KFLS 130230Z 09007KT 21/10 A2995 RMK A01 T02060104  RH  053%=      5-min Rain = 0
KFLS 130235Z 08007KT 21/10 A2995 RMK A01 T02050103  RH  053%=      5-min Rain = 0
KFLS 130240Z 10007KT 20/10 A2995 RMK A01 T02040103  RH  053%=      5-min Rain = 0
KFLS 130245Z 10007KT 20/10 A2995 RMK A01 T02020104  RH  054%=      5-min Rain = 0
KFLS 130250Z 08007KT 20/11 A2995 RMK A01 T01990105  RH  056%=      5-min Rain = 0
KFLS 130255Z 09008KT 20/10 A2995 RMK A01 T01990103  RH  055%=      5-min Rain = 0
KFLS 130300Z 10007KT 20/10 A2995 RMK A01 T02010102  RH  054%=      5-min Rain = 0
KFLS 130305Z 09007KT 20/10 A2995 RMK A01 T02000102  RH  054%=      5-min Rain = 0
KFLS 130310Z 09006KT 20/10 A2995 RMK A01 T01960101  RH  055%=      5-min Rain = 0
KFLS 130315Z 08006KT 20/10 A2996 RMK A01 T01950101  RH  056%=      5-min Rain = 0
KFLS 130320Z 09006KT 19/10 A2996 RMK A01 T01930101  RH  056%=      5-min Rain = 0
KFLS 130325Z 09006KT 19/10 A2996 RMK A01 T01910101  RH  057%=      5-min Rain = 0
KFLS 130330Z 09007KT 19/10 A2996 RMK A01 T01870101  RH  058%=      5-min Rain = 0
KFLS 130335Z 09006KT 19/10 A2996 RMK A01 T01850101  RH  059%=      5-min Rain = 0
KFLS 130340Z 09006KT 19/10 A2996 RMK A01 T01860100  RH  058%=      5-min Rain = 0
KFLS 130345Z 10007KT 19/10 A2996 RMK A01 T01850100  RH  059%=      5-min Rain = 0
KFLS 130350Z 12007KT 18/10 A2996 RMK A01 T01840100  RH  059%=      5-min Rain = 0
KFLS 130355Z 11006KT 19/10 A2996 RMK A01 T01870099  RH  057%=      5-min Rain = 0
KFLS 130400Z 11005KT 18/10 A2996 RMK A01 T01840100  RH  059%=      5-min Rain = 0
KFLS 130405Z 12007KT 18/10 A2996 RMK A01 T01800098  RH  060%=      5-min Rain = 0
KFLS 130410Z 12006KT 18/10 A2996 RMK A01 T01820098  RH  059%=      5-min Rain = 0
KFLS 130415Z 11005KT 18/10 A2996 RMK A01 T01830097  RH  058%=      5-min Rain = 0
KFLS 130420Z 11005KT 18/10 A2996 RMK A01 T01810098  RH  059%=      5-min Rain = 0
KFLS 130425Z 10006KT 18/10 A2996 RMK A01 T01790098  RH  060%=      5-min Rain = 0
KFLS 130430Z 12005KT 18/10 A2996 RMK A01 T01780097  RH  060%=      5-min Rain = 0
KFLS 130435Z 13005KT 17/10 A2996 RMK A01 T01730098  RH  062%=      5-min Rain = 0
KFLS 130440Z 13005KT 17/10 A2996 RMK A01 T01730097  RH  062%=      5-min Rain = 0
KFLS 130445Z 14005KT 18/10 A2997 RMK A01 T01750097  RH  061%=      5-min Rain = 0
KFLS 130450Z 12005KT 18/10 A2997 RMK A01 T01760097  RH  061%=      5-min Rain = 0
KFLS 130455Z 13006KT 18/10 A2997 RMK A01 T01770096  RH  060%=      5-min Rain = 0

Page generated in 0.0089 seconds.